Wellingborough, United Kingdom
Current Conditions -  °F | °C
As of 2:20 PM on Thursday 18 Dec 2014 (Local Time) from EGTC Reporting Station
Broken Clouds Broken Clouds  
Wind Chill: 54°   Ceiling: 1100
Heat Index: 54°   Visibility: 6mi
Dew Point: 52°   Wind: 28mph
Humidity: 94%   Direction: 240°WSW
Pressure: 29.71"   Gusts: 39mph
Location:  52.3°N, 0.69°W
Report Text: EGTC 181420Z 24024G34KT 9999 BKN011 12/11 Q1006
Loading
Personal Weather Stations






























Interactive Weather Map New forecast layout! Learn more

10-Day Weather Forecast

Advertisements
Track Severe Weather on mobile